sensor_id;sensor_type;location;lat;lon;timestamp;P1;durP1;ratioP1;P2;durP2;ratioP2
9526;SDS011;4802;51.494;6.770;2022-10-14T00:00:25;6.57;;;4.50;;
9526;SDS011;4802;51.494;6.770;2022-10-14T00:02:55;8.90;;;5.10;;
9526;SDS011;4802;51.494;6.770;2022-10-14T00:05:26;7.93;;;5.33;;
9526;SDS011;4802;51.494;6.770;2022-10-14T00:07:57;6.17;;;5.10;;
9526;SDS011;4802;51.494;6.770;2022-10-14T00:10:27;5.80;;;5.30;;
9526;SDS011;4802;51.494;6.770;2022-10-14T00:12:56;5.93;;;5.33;;
9526;SDS011;4802;51.494;6.770;2022-10-14T00:15:26;6.40;;;4.30;;
9526;SDS011;4802;51.494;6.770;2022-10-14T00:17:55;14.40;;;6.57;;
9526;SDS011;4802;51.494;6.770;2022-10-14T00:20:27;6.20;;;3.70;;
9526;SDS011;4802;51.494;6.770;2022-10-14T00:22:56;8.97;;;5.10;;
9526;SDS011;4802;51.494;6.770;2022-10-14T00:25:27;4.17;;;3.73;;
9526;SDS011;4802;51.494;6.770;2022-10-14T00:27:59;7.33;;;5.00;;
9526;SDS011;4802;51.494;6.770;2022-10-14T00:30:29;7.27;;;6.50;;
9526;SDS011;4802;51.494;6.770;2022-10-14T00:33:00;10.83;;;4.97;;
9526;SDS011;4802;51.494;6.770;2022-10-14T00:35:31;5.37;;;4.67;;
9526;SDS011;4802;51.494;6.770;2022-10-14T00:38:01;4.87;;;4.50;;
9526;SDS011;4802;51.494;6.770;2022-10-14T00:40:32;6.07;;;4.73;;
9526;SDS011;4802;51.494;6.770;2022-10-14T00:43:01;11.13;;;6.13;;
9526;SDS011;4802;51.494;6.770;2022-10-14T00:45:30;8.40;;;5.33;;
9526;SDS011;4802;51.494;6.770;2022-10-14T00:48:00;5.10;;;3.57;;
9526;SDS011;4802;51.494;6.770;2022-10-14T00:50:29;7.77;;;5.43;;
9526;SDS011;4802;51.494;6.770;2022-10-14T00:53:09;6.67;;;6.07;;
9526;SDS011;4802;51.494;6.770;2022-10-14T00:55:42;5.67;;;4.80;;
9526;SDS011;4802;51.494;6.770;2022-10-14T00:58:13;5.90;;;5.13;;
9526;SDS011;4802;51.494;6.770;2022-10-14T01:00:48;12.80;;;6.80;;
9526;SDS011;4802;51.494;6.770;2022-10-14T01:03:23;9.10;;;5.47;;
9526;SDS011;4802;51.494;6.770;2022-10-14T01:05:55;5.33;;;4.93;;
9526;SDS011;4802;51.494;6.770;2022-10-14T01:08:30;11.20;;;5.90;;
9526;SDS011;4802;51.494;6.770;2022-10-14T01:11:01;5.50;;;4.77;;
9526;SDS011;4802;51.494;6.770;2022-10-14T01:13:33;6.07;;;4.60;;
9526;SDS011;4802;51.494;6.770;2022-10-14T01:16:09;10.37;;;5.67;;
9526;SDS011;4802;51.494;6.770;2022-10-14T01:18:51;6.13;;;4.93;;
9526;SDS011;4802;51.494;6.770;2022-10-14T01:29:52;6.23;;;5.63;;
9526;SDS011;4802;51.494;6.770;2022-10-14T01:32:24;6.00;;;5.40;;
9526;SDS011;4802;51.494;6.770;2022-10-14T01:35:09;5.73;;;5.13;;
9526;SDS011;4802;51.494;6.770;2022-10-14T01:38:10;5.70;;;4.93;;
9526;SDS011;4802;51.494;6.770;2022-10-14T01:40:46;10.30;;;5.03;;
9526;SDS011;4802;51.494;6.770;2022-10-14T01:43:18;6.67;;;4.97;;
9526;SDS011;4802;51.494;6.770;2022-10-14T01:46:09;9.17;;;5.87;;
9526;SDS011;4802;51.494;6.770;2022-10-14T01:48:40;6.33;;;5.53;;
9526;SDS011;4802;51.494;6.770;2022-10-14T01:51:14;5.70;;;4.33;;
9526;SDS011;4802;51.494;6.770;2022-10-14T01:53:50;6.77;;;5.43;;
9526;SDS011;4802;51.494;6.770;2022-10-14T01:56:20;11.43;;;8.67;;
9526;SDS011;4802;51.494;6.770;2022-10-14T01:58:50;8.90;;;6.20;;
9526;SDS011;4802;51.494;6.770;2022-10-14T02:01:25;39.63;;;6.97;;
9526;SDS011;4802;51.494;6.770;2022-10-14T02:03:54;11.80;;;6.60;;
9526;SDS011;4802;51.494;6.770;2022-10-14T02:06:24;10.90;;;6.40;;
9526;SDS011;4802;51.494;6.770;2022-10-14T02:09:01;8.13;;;5.30;;
9526;SDS011;4802;51.494;6.770;2022-10-14T02:11:32;20.40;;;7.30;;
9526;SDS011;4802;51.494;6.770;2022-10-14T02:14:07;15.50;;;7.90;;
9526;SDS011;4802;51.494;6.770;2022-10-14T02:16:41;8.57;;;7.17;;
9526;SDS011;4802;51.494;6.770;2022-10-14T02:19:16;13.63;;;6.37;;
9526;SDS011;4802;51.494;6.770;2022-10-14T02:21:50;16.47;;;6.30;;
9526;SDS011;4802;51.494;6.770;2022-10-14T02:24:21;8.57;;;5.57;;
9526;SDS011;4802;51.494;6.770;2022-10-14T02:26:52;12.03;;;6.83;;
9526;SDS011;4802;51.494;6.770;2022-10-14T02:29:23;8.80;;;5.43;;
9526;SDS011;4802;51.494;6.770;2022-10-14T02:31:54;12.23;;;7.37;;
9526;SDS011;4802;51.494;6.770;2022-10-14T02:34:24;7.37;;;5.07;;
9526;SDS011;4802;51.494;6.770;2022-10-14T02:36:54;8.43;;;5.90;;
9526;SDS011;4802;51.494;6.770;2022-10-14T02:39:24;10.03;;;6.10;;
9526;SDS011;4802;51.494;6.770;2022-10-14T02:41:55;11.23;;;6.90;;
9526;SDS011;4802;51.494;6.770;2022-10-14T02:44:31;7.40;;;5.63;;
9526;SDS011;4802;51.494;6.770;2022-10-14T02:47:02;8.40;;;6.30;;
9526;SDS011;4802;51.494;6.770;2022-10-14T02:49:37;9.30;;;5.97;;
9526;SDS011;4802;51.494;6.770;2022-10-14T02:52:06;6.10;;;5.17;;
9526;SDS011;4802;51.494;6.770;2022-10-14T02:54:35;7.47;;;4.73;;
9526;SDS011;4802;51.494;6.770;2022-10-14T02:57:05;8.87;;;6.00;;
9526;SDS011;4802;51.494;6.770;2022-10-14T02:59:34;7.67;;;5.63;;
9526;SDS011;4802;51.494;6.770;2022-10-14T03:02:06;10.03;;;5.17;;
9526;SDS011;4802;51.494;6.770;2022-10-14T03:04:36;5.57;;;5.07;;
9526;SDS011;4802;51.494;6.770;2022-10-14T03:07:05;5.93;;;5.33;;
9526;SDS011;4802;51.494;6.770;2022-10-14T03:09:34;6.70;;;5.00;;
9526;SDS011;4802;51.494;6.770;2022-10-14T03:12:03;4.97;;;4.33;;
9526;SDS011;4802;51.494;6.770;2022-10-14T03:14:34;8.50;;;5.40;;
9526;SDS011;4802;51.494;6.770;2022-10-14T03:17:03;7.03;;;6.00;;
9526;SDS011;4802;51.494;6.770;2022-10-14T03:19:34;8.60;;;5.93;;
9526;SDS011;4802;51.494;6.770;2022-10-14T03:22:03;6.80;;;5.07;;
9526;SDS011;4802;51.494;6.770;2022-10-14T03:24:32;7.60;;;4.63;;
9526;SDS011;4802;51.494;6.770;2022-10-14T03:27:10;7.00;;;5.33;;
9526;SDS011;4802;51.494;6.770;2022-10-14T03:29:40;10.10;;;5.77;;
9526;SDS011;4802;51.494;6.770;2022-10-14T03:32:09;11.13;;;6.27;;
9526;SDS011;4802;51.494;6.770;2022-10-14T03:34:40;10.70;;;6.67;;
9526;SDS011;4802;51.494;6.770;2022-10-14T03:37:09;6.37;;;5.07;;
9526;SDS011;4802;51.494;6.770;2022-10-14T03:39:38;7.53;;;6.00;;
9526;SDS011;4802;51.494;6.770;2022-10-14T03:42:07;7.80;;;4.80;;
9526;SDS011;4802;51.494;6.770;2022-10-14T03:44:36;11.20;;;6.27;;
9526;SDS011;4802;51.494;6.770;2022-10-14T03:47:05;10.97;;;6.40;;
9526;SDS011;4802;51.494;6.770;2022-10-14T03:49:35;9.40;;;5.77;;
9526;SDS011;4802;51.494;6.770;2022-10-14T03:52:07;8.77;;;5.53;;
9526;SDS011;4802;51.494;6.770;2022-10-14T03:54:37;5.83;;;5.17;;
9526;SDS011;4802;51.494;6.770;2022-10-14T03:57:06;8.10;;;7.40;;
9526;SDS011;4802;51.494;6.770;2022-10-14T03:59:35;11.60;;;7.90;;
9526;SDS011;4802;51.494;6.770;2022-10-14T04:02:04;12.90;;;6.70;;
9526;SDS011;4802;51.494;6.770;2022-10-14T04:04:34;16.03;;;7.50;;
9526;SDS011;4802;51.494;6.770;2022-10-14T04:07:03;9.50;;;7.10;;
9526;SDS011;4802;51.494;6.770;2022-10-14T04:09:33;7.03;;;6.03;;
9526;SDS011;4802;51.494;6.770;2022-10-14T04:12:02;5.43;;;4.37;;
9526;SDS011;4802;51.494;6.770;2022-10-14T04:14:31;11.03;;;8.60;;
9526;SDS011;4802;51.494;6.770;2022-10-14T04:17:00;6.20;;;5.20;;
9526;SDS011;4802;51.494;6.770;2022-10-14T04:19:30;10.80;;;6.70;;
9526;SDS011;4802;51.494;6.770;2022-10-14T04:21:59;7.83;;;5.83;;
9526;SDS011;4802;51.494;6.770;2022-10-14T04:24:28;9.33;;;6.03;;
9526;SDS011;4802;51.494;6.770;2022-10-14T04:26:59;11.37;;;6.33;;
9526;SDS011;4802;51.494;6.770;2022-10-14T04:29:28;14.97;;;8.27;;
9526;SDS011;4802;51.494;6.770;2022-10-14T04:31:57;7.80;;;5.20;;
9526;SDS011;4802;51.494;6.770;2022-10-14T04:34:27;7.43;;;5.33;;
9526;SDS011;4802;51.494;6.770;2022-10-14T04:36:56;7.10;;;5.00;;
9526;SDS011;4802;51.494;6.770;2022-10-14T04:39:24;6.73;;;5.43;;
9526;SDS011;4802;51.494;6.770;2022-10-14T04:41:56;8.90;;;5.77;;
9526;SDS011;4802;51.494;6.770;2022-10-14T04:44:27;8.00;;;6.30;;
9526;SDS011;4802;51.494;6.770;2022-10-14T04:46:56;8.27;;;6.20;;
9526;SDS011;4802;51.494;6.770;2022-10-14T04:49:25;10.30;;;6.83;;
9526;SDS011;4802;51.494;6.770;2022-10-14T04:51:54;6.10;;;5.10;;
9526;SDS011;4802;51.494;6.770;2022-10-14T04:54:23;10.70;;;6.60;;
9526;SDS011;4802;51.494;6.770;2022-10-14T04:56:52;10.40;;;7.00;;
9526;SDS011;4802;51.494;6.770;2022-10-14T04:59:21;8.67;;;4.80;;
9526;SDS011;4802;51.494;6.770;2022-10-14T05:01:53;10.30;;;7.77;;
9526;SDS011;4802;51.494;6.770;2022-10-14T05:04:23;9.03;;;6.00;;
9526;SDS011;4802;51.494;6.770;2022-10-14T05:06:51;7.93;;;5.70;;
9526;SDS011;4802;51.494;6.770;2022-10-14T05:09:22;5.57;;;4.63;;
9526;SDS011;4802;51.494;6.770;2022-10-14T05:11:52;9.50;;;6.50;;
9526;SDS011;4802;51.494;6.770;2022-10-14T05:14:23;5.83;;;4.17;;
9526;SDS011;4802;51.494;6.770;2022-10-14T05:16:51;6.87;;;5.30;;
9526;SDS011;4802;51.494;6.770;2022-10-14T05:19:25;6.60;;;4.50;;
9526;SDS011;4802;51.494;6.770;2022-10-14T05:21:55;9.13;;;5.83;;
9526;SDS011;4802;51.494;6.770;2022-10-14T05:24:24;4.47;;;4.03;;
9526;SDS011;4802;51.494;6.770;2022-10-14T05:26:54;8.70;;;4.77;;
9526;SDS011;4802;51.494;6.770;2022-10-14T05:29:25;6.43;;;4.63;;
9526;SDS011;4802;51.494;6.770;2022-10-14T05:31:56;7.13;;;5.73;;
9526;SDS011;4802;51.494;6.770;2022-10-14T05:34:26;5.77;;;5.23;;
9526;SDS011;4802;51.494;6.770;2022-10-14T05:36:57;8.53;;;5.37;;
9526;SDS011;4802;51.494;6.770;2022-10-14T05:39:26;7.57;;;5.27;;
9526;SDS011;4802;51.494;6.770;2022-10-14T05:41:56;4.70;;;4.13;;
9526;SDS011;4802;51.494;6.770;2022-10-14T05:44:25;5.37;;;4.87;;
9526;SDS011;4802;51.494;6.770;2022-10-14T05:46:58;6.30;;;4.80;;
9526;SDS011;4802;51.494;6.770;2022-10-14T05:49:28;5.03;;;3.93;;
9526;SDS011;4802;51.494;6.770;2022-10-14T05:51:58;4.07;;;3.77;;
9526;SDS011;4802;51.494;6.770;2022-10-14T05:54:26;6.80;;;5.23;;
9526;SDS011;4802;51.494;6.770;2022-10-14T05:56:56;3.80;;;3.53;;
9526;SDS011;4802;51.494;6.770;2022-10-14T05:59:25;6.27;;;5.47;;
9526;SDS011;4802;51.494;6.770;2022-10-14T06:01:57;11.93;;;6.47;;
9526;SDS011;4802;51.494;6.770;2022-10-14T06:04:26;15.43;;;5.73;;
9526;SDS011;4802;51.494;6.770;2022-10-14T06:06:55;8.10;;;5.10;;
9526;SDS011;4802;51.494;6.770;2022-10-14T06:09:26;4.27;;;3.97;;
9526;SDS011;4802;51.494;6.770;2022-10-14T06:11:57;4.67;;;4.27;;
9526;SDS011;4802;51.494;6.770;2022-10-14T06:14:26;5.13;;;4.53;;
9526;SDS011;4802;51.494;6.770;2022-10-14T06:16:59;5.47;;;4.90;;
9526;SDS011;4802;51.494;6.770;2022-10-14T06:19:29;5.27;;;4.50;;
9526;SDS011;4802;51.494;6.770;2022-10-14T06:21:58;5.10;;;3.70;;
9526;SDS011;4802;51.494;6.770;2022-10-14T06:24:27;14.53;;;4.70;;
9526;SDS011;4802;51.494;6.770;2022-10-14T06:26:57;12.57;;;4.77;;
9526;SDS011;4802;51.494;6.770;2022-10-14T06:29:26;6.53;;;4.70;;
9526;SDS011;4802;51.494;6.770;2022-10-14T06:31:59;5.03;;;4.03;;
9526;SDS011;4802;51.494;6.770;2022-10-14T06:34:29;5.43;;;4.60;;
9526;SDS011;4802;51.494;6.770;2022-10-14T06:36:59;4.73;;;4.30;;
9526;SDS011;4802;51.494;6.770;2022-10-14T06:39:38;4.37;;;4.03;;
9526;SDS011;4802;51.494;6.770;2022-10-14T06:42:25;3.83;;;3.53;;
9526;SDS011;4802;51.494;6.770;2022-10-14T06:44:55;3.67;;;3.37;;
9526;SDS011;4802;51.494;6.770;2022-10-14T06:47:28;5.90;;;4.30;;
9526;SDS011;4802;51.494;6.770;2022-10-14T06:49:58;5.77;;;4.33;;
9526;SDS011;4802;51.494;6.770;2022-10-14T06:52:29;6.07;;;4.37;;
9526;SDS011;4802;51.494;6.770;2022-10-14T06:54:58;9.50;;;7.00;;
9526;SDS011;4802;51.494;6.770;2022-10-14T06:57:28;4.90;;;3.30;;
9526;SDS011;4802;51.494;6.770;2022-10-14T06:59:57;4.97;;;4.50;;
9526;SDS011;4802;51.494;6.770;2022-10-14T07:02:30;5.30;;;3.60;;
9526;SDS011;4802;51.494;6.770;2022-10-14T07:04:59;4.03;;;3.63;;
9526;SDS011;4802;51.494;6.770;2022-10-14T07:07:28;5.40;;;4.50;;
9526;SDS011;4802;51.494;6.770;2022-10-14T07:09:58;6.37;;;3.43;;
9526;SDS011;4802;51.494;6.770;2022-10-14T07:12:28;5.37;;;4.87;;
9526;SDS011;4802;51.494;6.770;2022-10-14T07:14:57;6.20;;;3.93;;
9526;SDS011;4802;51.494;6.770;2022-10-14T07:17:35;6.13;;;3.97;;
9526;SDS011;4802;51.494;6.770;2022-10-14T07:20:05;3.40;;;3.10;;
9526;SDS011;4802;51.494;6.770;2022-10-14T07:22:35;3.90;;;3.47;;
9526;SDS011;4802;51.494;6.770;2022-10-14T07:25:06;3.47;;;3.13;;
9526;SDS011;4802;51.494;6.770;2022-10-14T07:27:36;2.90;;;2.70;;
9526;SDS011;4802;51.494;6.770;2022-10-14T07:30:05;7.10;;;3.77;;
9526;SDS011;4802;51.494;6.770;2022-10-14T07:32:43;3.57;;;3.07;;
9526;SDS011;4802;51.494;6.770;2022-10-14T07:35:14;2.67;;;2.47;;
9526;SDS011;4802;51.494;6.770;2022-10-14T07:37:45;3.70;;;3.50;;
9526;SDS011;4802;51.494;6.770;2022-10-14T07:40:14;5.53;;;3.47;;
9526;SDS011;4802;51.494;6.770;2022-10-14T07:42:46;4.67;;;3.33;;
9526;SDS011;4802;51.494;6.770;2022-10-14T07:45:16;2.83;;;2.73;;
9526;SDS011;4802;51.494;6.770;2022-10-14T07:47:49;4.40;;;3.90;;
9526;SDS011;4802;51.494;6.770;2022-10-14T07:50:20;3.80;;;3.43;;
9526;SDS011;4802;51.494;6.770;2022-10-14T07:52:55;5.30;;;4.37;;
9526;SDS011;4802;51.494;6.770;2022-10-14T07:55:27;5.87;;;3.10;;
9526;SDS011;4802;51.494;6.770;2022-10-14T07:57:56;5.00;;;2.87;;
9526;SDS011;4802;51.494;6.770;2022-10-14T08:00:26;4.50;;;4.10;;
9526;SDS011;4802;51.494;6.770;2022-10-14T08:02:56;3.00;;;2.80;;
9526;SDS011;4802;51.494;6.770;2022-10-14T08:05:26;4.00;;;3.70;;
9526;SDS011;4802;51.494;6.770;2022-10-14T08:08:03;3.77;;;2.90;;
9526;SDS011;4802;51.494;6.770;2022-10-14T08:10:35;2.77;;;2.57;;
9526;SDS011;4802;51.494;6.770;2022-10-14T08:13:04;3.27;;;2.83;;
9526;SDS011;4802;51.494;6.770;2022-10-14T08:15:34;5.70;;;3.50;;
9526;SDS011;4802;51.494;6.770;2022-10-14T08:18:08;2.07;;;1.97;;
9526;SDS011;4802;51.494;6.770;2022-10-14T08:20:39;3.47;;;2.03;;
9526;SDS011;4802;51.494;6.770;2022-10-14T08:23:08;4.33;;;3.93;;
9526;SDS011;4802;51.494;6.770;2022-10-14T08:25:45;3.63;;;3.40;;
9526;SDS011;4802;51.494;6.770;2022-10-14T08:28:17;2.93;;;2.57;;
9526;SDS011;4802;51.494;6.770;2022-10-14T08:30:48;3.27;;;3.00;;
9526;SDS011;4802;51.494;6.770;2022-10-14T08:33:19;6.30;;;3.87;;
9526;SDS011;4802;51.494;6.770;2022-10-14T08:35:49;3.90;;;3.60;;
9526;SDS011;4802;51.494;6.770;2022-10-14T08:38:19;3.23;;;3.03;;
9526;SDS011;4802;51.494;6.770;2022-10-14T08:40:58;6.30;;;3.30;;
9526;SDS011;4802;51.494;6.770;2022-10-14T08:43:36;3.63;;;3.33;;
9526;SDS011;4802;51.494;6.770;2022-10-14T08:46:12;2.77;;;2.57;;
9526;SDS011;4802;51.494;6.770;2022-10-14T08:49:08;4.17;;;3.20;;
9526;SDS011;4802;51.494;6.770;2022-10-14T08:51:44;2.90;;;2.73;;
9526;SDS011;4802;51.494;6.770;2022-10-14T08:54:22;2.73;;;2.53;;
9526;SDS011;4802;51.494;6.770;2022-10-14T08:56:58;3.63;;;3.33;;
9526;SDS011;4802;51.494;6.770;2022-10-14T08:59:28;3.13;;;2.53;;
9526;SDS011;4802;51.494;6.770;2022-10-14T09:02:03;3.47;;;2.80;;
9526;SDS011;4802;51.494;6.770;2022-10-14T09:04:44;8.17;;;4.30;;
9526;SDS011;4802;51.494;6.770;2022-10-14T09:07:16;2.60;;;2.47;;
9526;SDS011;4802;51.494;6.770;2022-10-14T09:09:46;3.83;;;2.40;;
9526;SDS011;4802;51.494;6.770;2022-10-14T09:12:17;2.53;;;2.40;;
9526;SDS011;4802;51.494;6.770;2022-10-14T09:14:52;2.70;;;2.50;;
9526;SDS011;4802;51.494;6.770;2022-10-14T09:17:25;2.80;;;1.80;;
9526;SDS011;4802;51.494;6.770;2022-10-14T09:20:12;3.47;;;1.80;;
9526;SDS011;4802;51.494;6.770;2022-10-14T09:22:43;1.67;;;1.57;;
9526;SDS011;4802;51.494;6.770;2022-10-14T09:25:16;2.17;;;2.07;;
9526;SDS011;4802;51.494;6.770;2022-10-14T09:27:46;2.77;;;2.13;;
9526;SDS011;4802;51.494;6.770;2022-10-14T09:30:15;2.10;;;1.80;;
9526;SDS011;4802;51.494;6.770;2022-10-14T09:32:45;2.40;;;1.10;;
9526;SDS011;4802;51.494;6.770;2022-10-14T09:35:21;5.97;;;1.30;;
9526;SDS011;4802;51.494;6.770;2022-10-14T09:41:35;1.63;;;1.33;;
9526;SDS011;4802;51.494;6.770;2022-10-14T09:55:50;1.97;;;1.77;;
9526;SDS011;4802;51.494;6.770;2022-10-14T09:58:23;2.30;;;2.20;;
9526;SDS011;4802;51.494;6.770;2022-10-14T10:00:55;1.70;;;1.60;;
9526;SDS011;4802;51.494;6.770;2022-10-14T10:03:28;2.10;;;1.90;;
9526;SDS011;4802;51.494;6.770;2022-10-14T10:05:59;2.40;;;2.17;;
9526;SDS011;4802;51.494;6.770;2022-10-14T10:08:30;4.67;;;2.90;;
9526;SDS011;4802;51.494;6.770;2022-10-14T10:11:07;2.23;;;1.97;;
9526;SDS011;4802;51.494;6.770;2022-10-14T10:13:38;2.70;;;1.87;;
9526;SDS011;4802;51.494;6.770;2022-10-14T10:16:20;1.40;;;1.30;;
9526;SDS011;4802;51.494;6.770;2022-10-14T10:22:20;1.90;;;1.50;;
9526;SDS011;4802;51.494;6.770;2022-10-14T10:27:44;7.17;;;3.47;;
9526;SDS011;4802;51.494;6.770;2022-10-14T10:30:20;5.30;;;3.87;;
9526;SDS011;4802;51.494;6.770;2022-10-14T10:33:08;2.83;;;2.40;;
9526;SDS011;4802;51.494;6.770;2022-10-14T10:35:43;3.40;;;3.10;;
9526;SDS011;4802;51.494;6.770;2022-10-14T10:38:22;5.20;;;2.10;;
9526;SDS011;4802;51.494;6.770;2022-10-14T10:41:01;3.50;;;1.73;;
9526;SDS011;4802;51.494;6.770;2022-10-14T11:01:53;1.83;;;1.67;;
9526;SDS011;4802;51.494;6.770;2022-10-14T11:04:28;3.50;;;1.77;;
9526;SDS011;4802;51.494;6.770;2022-10-14T11:07:11;2.30;;;1.80;;
9526;SDS011;4802;51.494;6.770;2022-10-14T11:10:02;10.13;;;2.67;;
9526;SDS011;4802;51.494;6.770;2022-10-14T11:12:55;4.00;;;2.23;;
9526;SDS011;4802;51.494;6.770;2022-10-14T11:15:40;3.43;;;2.07;;
9526;SDS011;4802;51.494;6.770;2022-10-14T11:18:22;1.20;;;1.10;;
9526;SDS011;4802;51.494;6.770;2022-10-14T11:21:03;3.70;;;1.83;;
9526;SDS011;4802;51.494;6.770;2022-10-14T11:23:47;1.73;;;1.63;;
9526;SDS011;4802;51.494;6.770;2022-10-14T11:26:24;3.90;;;1.30;;
9526;SDS011;4802;51.494;6.770;2022-10-14T11:29:16;1.37;;;1.27;;
9526;SDS011;4802;51.494;6.770;2022-10-14T11:31:50;3.13;;;1.57;;
9526;SDS011;4802;51.494;6.770;2022-10-14T11:34:27;2.53;;;2.43;;
9526;SDS011;4802;51.494;6.770;2022-10-14T11:37:06;1.60;;;1.50;;
9526;SDS011;4802;51.494;6.770;2022-10-14T11:40:13;2.60;;;2.40;;
9526;SDS011;4802;51.494;6.770;2022-10-14T11:42:51;2.60;;;1.80;;
9526;SDS011;4802;51.494;6.770;2022-10-14T11:45:42;3.33;;;1.17;;
9526;SDS011;4802;51.494;6.770;2022-10-14T11:48:28;1.93;;;1.83;;
9526;SDS011;4802;51.494;6.770;2022-10-14T11:51:18;3.43;;;3.13;;
9526;SDS011;4802;51.494;6.770;2022-10-14T11:54:04;1.63;;;1.60;;
9526;SDS011;4802;51.494;6.770;2022-10-14T11:56:42;2.07;;;1.93;;
9526;SDS011;4802;51.494;6.770;2022-10-14T11:59:35;2.60;;;2.30;;
9526;SDS011;4802;51.494;6.770;2022-10-14T12:02:12;2.27;;;2.07;;
9526;SDS011;4802;51.494;6.770;2022-10-14T12:05:03;2.57;;;1.37;;
9526;SDS011;4802;51.494;6.770;2022-10-14T12:08:06;2.60;;;2.40;;
9526;SDS011;4802;51.494;6.770;2022-10-14T12:11:02;3.60;;;2.67;;
9526;SDS011;4802;51.494;6.770;2022-10-14T12:14:05;3.47;;;2.33;;
9526;SDS011;4802;51.494;6.770;2022-10-14T12:16:55;2.90;;;2.70;;
9526;SDS011;4802;51.494;6.770;2022-10-14T12:19:47;3.17;;;2.97;;
9526;SDS011;4802;51.494;6.770;2022-10-14T12:22:32;2.63;;;2.43;;
9526;SDS011;4802;51.494;6.770;2022-10-14T12:36:49;8.80;;;4.30;;
9526;SDS011;4802;51.494;6.770;2022-10-14T12:39:35;3.27;;;2.93;;
9526;SDS011;4802;51.494;6.770;2022-10-14T12:42:12;3.23;;;2.93;;
9526;SDS011;4802;51.494;6.770;2022-10-14T12:45:03;4.07;;;3.50;;
9526;SDS011;4802;51.494;6.770;2022-10-14T12:48:11;4.13;;;3.70;;
9526;SDS011;4802;51.494;6.770;2022-10-14T12:50:56;9.63;;;4.87;;
9526;SDS011;4802;51.494;6.770;2022-10-14T12:53:45;2.80;;;2.60;;
9526;SDS011;4802;51.494;6.770;2022-10-14T12:56:37;3.80;;;3.00;;
9526;SDS011;4802;51.494;6.770;2022-10-14T12:59:41;2.60;;;2.40;;
9526;SDS011;4802;51.494;6.770;2022-10-14T13:02:26;7.43;;;3.30;;
9526;SDS011;4802;51.494;6.770;2022-10-14T13:05:21;2.97;;;2.77;;
9526;SDS011;4802;51.494;6.770;2022-10-14T13:08:09;5.33;;;2.90;;
9526;SDS011;4802;51.494;6.770;2022-10-14T13:10:47;5.93;;;2.20;;
9526;SDS011;4802;51.494;6.770;2022-10-14T13:19:42;2.20;;;2.10;;
9526;SDS011;4802;51.494;6.770;2022-10-14T13:25:12;4.80;;;3.90;;
9526;SDS011;4802;51.494;6.770;2022-10-14T13:30:42;9.30;;;5.77;;
9526;SDS011;4802;51.494;6.770;2022-10-14T13:33:21;4.10;;;3.73;;
9526;SDS011;4802;51.494;6.770;2022-10-14T13:36:02;3.33;;;3.03;;
9526;SDS011;4802;51.494;6.770;2022-10-14T13:38:45;5.63;;;3.77;;
9526;SDS011;4802;51.494;6.770;2022-10-14T13:41:19;10.47;;;5.10;;
9526;SDS011;4802;51.494;6.770;2022-10-14T13:44:01;7.43;;;5.17;;
9526;SDS011;4802;51.494;6.770;2022-10-14T13:46:40;7.90;;;4.63;;
9526;SDS011;4802;51.494;6.770;2022-10-14T13:49:22;3.83;;;3.53;;
9526;SDS011;4802;51.494;6.770;2022-10-14T13:52:00;4.77;;;3.80;;
9526;SDS011;4802;51.494;6.770;2022-10-14T13:54:34;4.90;;;4.40;;
9526;SDS011;4802;51.494;6.770;2022-10-14T13:57:14;4.50;;;4.00;;
9526;SDS011;4802;51.494;6.770;2022-10-14T14:00:25;8.80;;;4.40;;
9526;SDS011;4802;51.494;6.770;2022-10-14T14:03:13;6.00;;;3.90;;
9526;SDS011;4802;51.494;6.770;2022-10-14T14:05:51;3.63;;;3.37;;
9526;SDS011;4802;51.494;6.770;2022-10-14T14:08:24;4.00;;;3.63;;
9526;SDS011;4802;51.494;6.770;2022-10-14T14:11:07;4.33;;;4.03;;
9526;SDS011;4802;51.494;6.770;2022-10-14T14:13:52;3.83;;;3.40;;
9526;SDS011;4802;51.494;6.770;2022-10-14T14:16:28;5.33;;;4.57;;
9526;SDS011;4802;51.494;6.770;2022-10-14T14:19:18;3.73;;;3.43;;
9526;SDS011;4802;51.494;6.770;2022-10-14T14:22:04;11.60;;;6.00;;
9526;SDS011;4802;51.494;6.770;2022-10-14T14:24:34;9.87;;;6.17;;
9526;SDS011;4802;51.494;6.770;2022-10-14T14:27:20;8.90;;;6.97;;
9526;SDS011;4802;51.494;6.770;2022-10-14T14:29:52;10.30;;;7.90;;
9526;SDS011;4802;51.494;6.770;2022-10-14T14:32:30;11.40;;;7.57;;
9526;SDS011;4802;51.494;6.770;2022-10-14T14:35:07;11.80;;;6.37;;
9526;SDS011;4802;51.494;6.770;2022-10-14T14:37:44;9.07;;;7.10;;
9526;SDS011;4802;51.494;6.770;2022-10-14T14:40:25;11.00;;;6.53;;
9526;SDS011;4802;51.494;6.770;2022-10-14T14:42:58;13.63;;;8.80;;
9526;SDS011;4802;51.494;6.770;2022-10-14T14:45:42;9.10;;;4.90;;
9526;SDS011;4802;51.494;6.770;2022-10-14T14:48:12;7.13;;;5.97;;
9526;SDS011;4802;51.494;6.770;2022-10-14T14:50:48;7.10;;;5.67;;
9526;SDS011;4802;51.494;6.770;2022-10-14T14:53:19;13.70;;;7.70;;
9526;SDS011;4802;51.494;6.770;2022-10-14T14:56:02;7.17;;;6.03;;
9526;SDS011;4802;51.494;6.770;2022-10-14T14:58:42;7.90;;;6.40;;
9526;SDS011;4802;51.494;6.770;2022-10-14T15:01:17;11.10;;;6.87;;
9526;SDS011;4802;51.494;6.770;2022-10-14T15:03:51;9.80;;;7.57;;
9526;SDS011;4802;51.494;6.770;2022-10-14T15:06:42;13.23;;;7.13;;
9526;SDS011;4802;51.494;6.770;2022-10-14T15:09:48;11.30;;;6.50;;
9526;SDS011;4802;51.494;6.770;2022-10-14T15:12:22;16.23;;;6.33;;
9526;SDS011;4802;51.494;6.770;2022-10-14T15:14:54;8.17;;;5.67;;
9526;SDS011;4802;51.494;6.770;2022-10-14T15:17:27;10.07;;;6.00;;
9526;SDS011;4802;51.494;6.770;2022-10-14T15:23:01;12.23;;;6.80;;
9526;SDS011;4802;51.494;6.770;2022-10-14T15:25:55;6.97;;;5.83;;
9526;SDS011;4802;51.494;6.770;2022-10-14T15:28:29;12.83;;;6.47;;
9526;SDS011;4802;51.494;6.770;2022-10-14T15:30:59;8.77;;;6.33;;
9526;SDS011;4802;51.494;6.770;2022-10-14T15:33:31;21.03;;;7.50;;
9526;SDS011;4802;51.494;6.770;2022-10-14T15:36:02;7.30;;;6.50;;
9526;SDS011;4802;51.494;6.770;2022-10-14T15:38:37;6.93;;;5.30;;
9526;SDS011;4802;51.494;6.770;2022-10-14T15:41:08;8.83;;;6.10;;
9526;SDS011;4802;51.494;6.770;2022-10-14T15:43:41;7.40;;;5.97;;
9526;SDS011;4802;51.494;6.770;2022-10-14T15:46:12;9.47;;;5.70;;
9526;SDS011;4802;51.494;6.770;2022-10-14T15:49:01;9.37;;;6.70;;
9526;SDS011;4802;51.494;6.770;2022-10-14T15:51:34;10.83;;;6.53;;
9526;SDS011;4802;51.494;6.770;2022-10-14T15:57:04;7.93;;;6.40;;
9526;SDS011;4802;51.494;6.770;2022-10-14T15:59:42;4.70;;;4.30;;
9526;SDS011;4802;51.494;6.770;2022-10-14T16:02:38;8.57;;;5.00;;
9526;SDS011;4802;51.494;6.770;2022-10-14T16:05:37;5.53;;;4.93;;
9526;SDS011;4802;51.494;6.770;2022-10-14T16:08:34;4.10;;;3.70;;
9526;SDS011;4802;51.494;6.770;2022-10-14T16:49:36;4.67;;;3.20;;
9526;SDS011;4802;51.494;6.770;2022-10-14T16:52:36;8.60;;;4.30;;
9526;SDS011;4802;51.494;6.770;2022-10-14T16:55:45;4.53;;;2.50;;
9526;SDS011;4802;51.494;6.770;2022-10-14T16:58:30;5.27;;;3.80;;
9526;SDS011;4802;51.494;6.770;2022-10-14T17:01:12;2.47;;;2.37;;
9526;SDS011;4802;51.494;6.770;2022-10-14T17:04:02;4.40;;;2.73;;
9526;SDS011;4802;51.494;6.770;2022-10-14T17:07:01;6.23;;;2.57;;
9526;SDS011;4802;51.494;6.770;2022-10-14T17:09:54;4.43;;;3.50;;
9526;SDS011;4802;51.494;6.770;2022-10-14T17:12:43;2.80;;;2.47;;
9526;SDS011;4802;51.494;6.770;2022-10-14T17:15:43;2.90;;;2.60;;
9526;SDS011;4802;51.494;6.770;2022-10-14T17:18:45;4.77;;;2.60;;
9526;SDS011;4802;51.494;6.770;2022-10-14T18:15:38;3.80;;;3.00;;
9526;SDS011;4802;51.494;6.770;2022-10-14T18:18:28;2.80;;;2.60;;
9526;SDS011;4802;51.494;6.770;2022-10-14T18:21:29;5.53;;;2.57;;
9526;SDS011;4802;51.494;6.770;2022-10-14T19:55:59;10.03;;;4.40;;
9526;SDS011;4802;51.494;6.770;2022-10-14T20:21:03;6.87;;;5.17;;
9526;SDS011;4802;51.494;6.770;2022-10-14T20:23:40;4.17;;;3.53;;
9526;SDS011;4802;51.494;6.770;2022-10-14T20:26:12;5.20;;;3.90;;
9526;SDS011;4802;51.494;6.770;2022-10-14T20:28:49;7.43;;;5.50;;
9526;SDS011;4802;51.494;6.770;2022-10-14T20:31:59;4.77;;;4.13;;
9526;SDS011;4802;51.494;6.770;2022-10-14T20:34:56;5.93;;;4.57;;
9526;SDS011;4802;51.494;6.770;2022-10-14T20:38:05;7.40;;;5.23;;
9526;SDS011;4802;51.494;6.770;2022-10-14T20:40:40;3.83;;;3.50;;
9526;SDS011;4802;51.494;6.770;2022-10-14T20:43:37;5.90;;;4.63;;
9526;SDS011;4802;51.494;6.770;2022-10-14T20:46:17;5.00;;;4.03;;
9526;SDS011;4802;51.494;6.770;2022-10-14T20:49:08;5.80;;;5.20;;
9526;SDS011;4802;51.494;6.770;2022-10-14T20:52:05;5.70;;;4.50;;